VASU

Surat Airport

Airport
ICAO code
VASU
IATA Code
STV
Summary
ICAO Region
APAC
ICAO Territory
Location

Magdalla, Gujarat

Serving
Surat
Elevation
16 ft
Coordinates
21° 6' 51" N , 72° 44' 30" E
KCC
Metar
Observation
VASU 060930Z 01009KT 6000 NSC 32/09 Q1011 NOSIG
Station
Surat Airport
Date/Time
2023-02-06 10:30:00
Wind direction
10°
Wind speed
09 kts
Lowest cloud amount
nil significant cloud
Temperature
32°C
Dew point
9°C
Humidity
24%
QNH
1011 hPa
Weather condition
n/a

Climatology

Tropical Savanna climate (Köppen climate classification Aw)

Runways

Designator Length Width Surface Rops
4/22 2250 30 ASP No/No

Airport map

Aerial View

SKYbrary Partners:

Safety knowledge contributed by: